sensor_id;sensor_type;location;lat;lon;timestamp;P1;durP1;ratioP1;P2;durP2;ratioP2
19347;SDS011;9810;52.480;9.806;2023-08-12T00:00:45;8.68;;;3.67;;
19347;SDS011;9810;52.480;9.806;2023-08-12T00:03:12;8.95;;;3.10;;
19347;SDS011;9810;52.480;9.806;2023-08-12T00:05:39;6.50;;;3.05;;
19347;SDS011;9810;52.480;9.806;2023-08-12T00:08:25;8.85;;;3.38;;
19347;SDS011;9810;52.480;9.806;2023-08-12T00:10:57;10.85;;;4.13;;
19347;SDS011;9810;52.480;9.806;2023-08-12T00:13:24;8.43;;;3.75;;
19347;SDS011;9810;52.480;9.806;2023-08-12T00:15:52;7.30;;;3.00;;
19347;SDS011;9810;52.480;9.806;2023-08-12T00:18:21;12.43;;;3.72;;
19347;SDS011;9810;52.480;9.806;2023-08-12T00:20:51;9.38;;;3.80;;
19347;SDS011;9810;52.480;9.806;2023-08-12T00:23:20;8.45;;;3.35;;
19347;SDS011;9810;52.480;9.806;2023-08-12T00:25:57;7.82;;;3.63;;
19347;SDS011;9810;52.480;9.806;2023-08-12T00:28:24;8.43;;;3.57;;
19347;SDS011;9810;52.480;9.806;2023-08-12T00:30:51;9.30;;;3.47;;
19347;SDS011;9810;52.480;9.806;2023-08-12T00:33:18;7.97;;;3.63;;
19347;SDS011;9810;52.480;9.806;2023-08-12T00:35:45;9.57;;;3.55;;
19347;SDS011;9810;52.480;9.806;2023-08-12T00:38:17;4.72;;;3.33;;
19347;SDS011;9810;52.480;9.806;2023-08-12T00:40:52;11.15;;;3.92;;
19347;SDS011;9810;52.480;9.806;2023-08-12T00:43:20;7.40;;;3.20;;
19347;SDS011;9810;52.480;9.806;2023-08-12T00:45:49;9.95;;;3.25;;
19347;SDS011;9810;52.480;9.806;2023-08-12T00:48:16;21.00;;;4.70;;
19347;SDS011;9810;52.480;9.806;2023-08-12T00:50:44;7.13;;;3.50;;
19347;SDS011;9810;52.480;9.806;2023-08-12T00:53:14;9.73;;;3.72;;
19347;SDS011;9810;52.480;9.806;2023-08-12T00:55:47;5.95;;;3.25;;
19347;SDS011;9810;52.480;9.806;2023-08-12T00:58:17;7.07;;;3.55;;
19347;SDS011;9810;52.480;9.806;2023-08-12T01:00:48;7.65;;;3.63;;
19347;SDS011;9810;52.480;9.806;2023-08-12T01:03:15;8.27;;;3.50;;
19347;SDS011;9810;52.480;9.806;2023-08-12T01:05:44;8.90;;;3.53;;
19347;SDS011;9810;52.480;9.806;2023-08-12T01:08:15;6.72;;;4.13;;
19347;SDS011;9810;52.480;9.806;2023-08-12T01:11:00;7.07;;;4.30;;
19347;SDS011;9810;52.480;9.806;2023-08-12T01:13:39;7.97;;;4.40;;
19347;SDS011;9810;52.480;9.806;2023-08-12T01:16:28;10.40;;;3.72;;
19347;SDS011;9810;52.480;9.806;2023-08-12T01:19:10;7.50;;;3.63;;
19347;SDS011;9810;52.480;9.806;2023-08-12T01:27:56;9.48;;;3.70;;
19347;SDS011;9810;52.480;9.806;2023-08-12T01:30:46;5.63;;;3.78;;
19347;SDS011;9810;52.480;9.806;2023-08-12T01:33:43;11.32;;;3.92;;
19347;SDS011;9810;52.480;9.806;2023-08-12T01:36:20;14.57;;;4.28;;
19347;SDS011;9810;52.480;9.806;2023-08-12T01:38:53;9.77;;;4.05;;
19347;SDS011;9810;52.480;9.806;2023-08-12T01:41:31;7.10;;;2.95;;
19347;SDS011;9810;52.480;9.806;2023-08-12T01:47:20;8.95;;;3.85;;
19347;SDS011;9810;52.480;9.806;2023-08-12T01:49:47;13.70;;;5.15;;
19347;SDS011;9810;52.480;9.806;2023-08-12T01:52:14;7.60;;;3.70;;
19347;SDS011;9810;52.480;9.806;2023-08-12T01:54:41;6.57;;;3.22;;
19347;SDS011;9810;52.480;9.806;2023-08-12T01:57:08;10.13;;;5.13;;
19347;SDS011;9810;52.480;9.806;2023-08-12T01:59:35;7.72;;;3.47;;
19347;SDS011;9810;52.480;9.806;2023-08-12T02:02:02;5.38;;;3.47;;
19347;SDS011;9810;52.480;9.806;2023-08-12T02:04:31;7.78;;;4.18;;
19347;SDS011;9810;52.480;9.806;2023-08-12T02:06:59;7.35;;;3.85;;
19347;SDS011;9810;52.480;9.806;2023-08-12T02:09:26;7.20;;;4.18;;
19347;SDS011;9810;52.480;9.806;2023-08-12T02:11:52;7.72;;;3.83;;
19347;SDS011;9810;52.480;9.806;2023-08-12T02:14:19;11.30;;;3.67;;
19347;SDS011;9810;52.480;9.806;2023-08-12T02:16:46;6.72;;;4.03;;
19347;SDS011;9810;52.480;9.806;2023-08-12T02:19:13;10.23;;;4.40;;
19347;SDS011;9810;52.480;9.806;2023-08-12T02:21:42;11.07;;;4.15;;
19347;SDS011;9810;52.480;9.806;2023-08-12T02:24:10;7.45;;;4.28;;
19347;SDS011;9810;52.480;9.806;2023-08-12T02:26:37;10.70;;;4.30;;
19347;SDS011;9810;52.480;9.806;2023-08-12T02:29:04;10.48;;;3.83;;
19347;SDS011;9810;52.480;9.806;2023-08-12T02:31:31;11.20;;;3.87;;
19347;SDS011;9810;52.480;9.806;2023-08-12T02:33:58;12.83;;;4.17;;
19347;SDS011;9810;52.480;9.806;2023-08-12T02:36:25;11.18;;;4.28;;
19347;SDS011;9810;52.480;9.806;2023-08-12T02:38:54;10.05;;;4.00;;
19347;SDS011;9810;52.480;9.806;2023-08-12T02:41:20;11.47;;;3.67;;
19347;SDS011;9810;52.480;9.806;2023-08-12T02:43:47;7.15;;;4.53;;
19347;SDS011;9810;52.480;9.806;2023-08-12T02:46:14;12.68;;;4.53;;
19347;SDS011;9810;52.480;9.806;2023-08-12T02:48:42;14.40;;;4.53;;
19347;SDS011;9810;52.480;9.806;2023-08-12T02:51:09;6.87;;;3.70;;
19347;SDS011;9810;52.480;9.806;2023-08-12T02:53:36;9.55;;;4.15;;
19347;SDS011;9810;52.480;9.806;2023-08-12T02:56:05;5.90;;;3.77;;
19347;SDS011;9810;52.480;9.806;2023-08-12T02:58:32;6.07;;;3.58;;
19347;SDS011;9810;52.480;9.806;2023-08-12T03:00:59;6.53;;;3.97;;
19347;SDS011;9810;52.480;9.806;2023-08-12T03:03:26;7.68;;;3.85;;
19347;SDS011;9810;52.480;9.806;2023-08-12T03:05:53;6.47;;;4.03;;
19347;SDS011;9810;52.480;9.806;2023-08-12T03:08:20;9.60;;;4.07;;
19347;SDS011;9810;52.480;9.806;2023-08-12T03:10:47;9.40;;;3.92;;
19347;SDS011;9810;52.480;9.806;2023-08-12T03:13:15;5.00;;;3.97;;
19347;SDS011;9810;52.480;9.806;2023-08-12T03:15:42;7.72;;;4.28;;
19347;SDS011;9810;52.480;9.806;2023-08-12T03:18:09;6.45;;;4.20;;
19347;SDS011;9810;52.480;9.806;2023-08-12T03:20:36;6.17;;;3.83;;
19347;SDS011;9810;52.480;9.806;2023-08-12T03:23:03;6.40;;;3.85;;
19347;SDS011;9810;52.480;9.806;2023-08-12T03:25:30;6.95;;;4.03;;
19347;SDS011;9810;52.480;9.806;2023-08-12T03:27:57;8.48;;;4.57;;
19347;SDS011;9810;52.480;9.806;2023-08-12T03:30:26;6.88;;;3.88;;
19347;SDS011;9810;52.480;9.806;2023-08-12T03:32:53;6.82;;;3.92;;
19347;SDS011;9810;52.480;9.806;2023-08-12T03:35:20;8.63;;;4.15;;
19347;SDS011;9810;52.480;9.806;2023-08-12T03:37:46;5.50;;;3.85;;
19347;SDS011;9810;52.480;9.806;2023-08-12T03:40:13;13.45;;;4.03;;
19347;SDS011;9810;52.480;9.806;2023-08-12T03:42:41;8.07;;;4.07;;
19347;SDS011;9810;52.480;9.806;2023-08-12T03:45:09;5.90;;;4.07;;
19347;SDS011;9810;52.480;9.806;2023-08-12T03:47:38;7.35;;;3.58;;
19347;SDS011;9810;52.480;9.806;2023-08-12T03:50:05;3.40;;;3.10;;
19347;SDS011;9810;52.480;9.806;2023-08-12T03:52:33;8.10;;;4.53;;
19347;SDS011;9810;52.480;9.806;2023-08-12T03:55:00;5.55;;;3.92;;
19347;SDS011;9810;52.480;9.806;2023-08-12T03:57:27;7.45;;;4.43;;
19347;SDS011;9810;52.480;9.806;2023-08-12T03:59:54;6.20;;;3.70;;
19347;SDS011;9810;52.480;9.806;2023-08-12T04:02:21;5.23;;;4.40;;
19347;SDS011;9810;52.480;9.806;2023-08-12T04:04:51;5.60;;;4.37;;
19347;SDS011;9810;52.480;9.806;2023-08-12T04:07:18;4.38;;;3.85;;
19347;SDS011;9810;52.480;9.806;2023-08-12T04:09:45;8.48;;;4.68;;
19347;SDS011;9810;52.480;9.806;2023-08-12T04:12:12;12.73;;;4.70;;
19347;SDS011;9810;52.480;9.806;2023-08-12T04:14:39;8.82;;;5.18;;
19347;SDS011;9810;52.480;9.806;2023-08-12T04:17:06;6.90;;;4.33;;
19347;SDS011;9810;52.480;9.806;2023-08-12T04:19:33;7.70;;;4.87;;
19347;SDS011;9810;52.480;9.806;2023-08-12T04:22:02;9.82;;;4.53;;
19347;SDS011;9810;52.480;9.806;2023-08-12T04:24:29;5.72;;;4.88;;
19347;SDS011;9810;52.480;9.806;2023-08-12T04:26:56;8.38;;;4.70;;
19347;SDS011;9810;52.480;9.806;2023-08-12T04:29:22;20.23;;;5.17;;
19347;SDS011;9810;52.480;9.806;2023-08-12T04:31:49;5.70;;;4.70;;
19347;SDS011;9810;52.480;9.806;2023-08-12T04:34:17;7.60;;;4.70;;
19347;SDS011;9810;52.480;9.806;2023-08-12T04:36:44;7.83;;;5.50;;
19347;SDS011;9810;52.480;9.806;2023-08-12T04:39:13;12.67;;;5.73;;
19347;SDS011;9810;52.480;9.806;2023-08-12T04:41:40;7.60;;;5.13;;
19347;SDS011;9810;52.480;9.806;2023-08-12T04:44:07;9.70;;;5.63;;
19347;SDS011;9810;52.480;9.806;2023-08-12T04:46:34;8.10;;;5.03;;
19347;SDS011;9810;52.480;9.806;2023-08-12T04:49:01;11.90;;;7.00;;
19347;SDS011;9810;52.480;9.806;2023-08-12T04:51:28;14.02;;;7.85;;
19347;SDS011;9810;52.480;9.806;2023-08-12T04:53:55;11.57;;;7.90;;
19347;SDS011;9810;52.480;9.806;2023-08-12T04:56:24;12.68;;;8.02;;
19347;SDS011;9810;52.480;9.806;2023-08-12T04:58:54;15.75;;;8.13;;
19347;SDS011;9810;52.480;9.806;2023-08-12T05:01:21;12.00;;;8.60;;
19347;SDS011;9810;52.480;9.806;2023-08-12T05:03:48;10.93;;;8.33;;
19347;SDS011;9810;52.480;9.806;2023-08-12T05:06:15;10.73;;;8.37;;
19347;SDS011;9810;52.480;9.806;2023-08-12T05:08:42;12.05;;;8.48;;
19347;SDS011;9810;52.480;9.806;2023-08-12T05:11:09;12.38;;;7.97;;
19347;SDS011;9810;52.480;9.806;2023-08-12T05:13:37;12.82;;;8.75;;
19347;SDS011;9810;52.480;9.806;2023-08-12T05:16:04;14.70;;;9.23;;
19347;SDS011;9810;52.480;9.806;2023-08-12T05:18:31;12.65;;;8.18;;
19347;SDS011;9810;52.480;9.806;2023-08-12T05:20:58;11.50;;;9.60;;
19347;SDS011;9810;52.480;9.806;2023-08-12T05:23:25;14.20;;;9.70;;
19347;SDS011;9810;52.480;9.806;2023-08-12T05:25:52;18.10;;;8.68;;
19347;SDS011;9810;52.480;9.806;2023-08-12T05:28:19;12.80;;;9.90;;
19347;SDS011;9810;52.480;9.806;2023-08-12T05:30:47;14.17;;;10.77;;
19347;SDS011;9810;52.480;9.806;2023-08-12T05:33:14;18.40;;;9.87;;
19347;SDS011;9810;52.480;9.806;2023-08-12T05:35:41;13.77;;;10.23;;
19347;SDS011;9810;52.480;9.806;2023-08-12T05:38:08;14.43;;;10.53;;
19347;SDS011;9810;52.480;9.806;2023-08-12T05:40:35;15.07;;;10.27;;
19347;SDS011;9810;52.480;9.806;2023-08-12T05:43:02;17.10;;;10.02;;
19347;SDS011;9810;52.480;9.806;2023-08-12T05:45:29;14.07;;;10.60;;
19347;SDS011;9810;52.480;9.806;2023-08-12T05:47:58;18.07;;;11.53;;
19347;SDS011;9810;52.480;9.806;2023-08-12T05:50:25;11.65;;;10.20;;
19347;SDS011;9810;52.480;9.806;2023-08-12T05:52:52;16.75;;;10.32;;
19347;SDS011;9810;52.480;9.806;2023-08-12T05:55:19;17.10;;;10.17;;
19347;SDS011;9810;52.480;9.806;2023-08-12T05:57:46;15.38;;;11.43;;
19347;SDS011;9810;52.480;9.806;2023-08-12T06:00:13;16.35;;;10.88;;
19347;SDS011;9810;52.480;9.806;2023-08-12T06:02:40;22.77;;;12.93;;
19347;SDS011;9810;52.480;9.806;2023-08-12T06:05:10;17.77;;;11.70;;
19347;SDS011;9810;52.480;9.806;2023-08-12T06:07:37;17.07;;;11.27;;
19347;SDS011;9810;52.480;9.806;2023-08-12T06:10:04;20.50;;;10.98;;
19347;SDS011;9810;52.480;9.806;2023-08-12T06:12:31;19.52;;;11.90;;
19347;SDS011;9810;52.480;9.806;2023-08-12T06:14:58;18.00;;;12.00;;
19347;SDS011;9810;52.480;9.806;2023-08-12T06:17:26;17.45;;;11.75;;
19347;SDS011;9810;52.480;9.806;2023-08-12T06:19:53;17.87;;;10.67;;
19347;SDS011;9810;52.480;9.806;2023-08-12T06:22:21;22.57;;;12.63;;
19347;SDS011;9810;52.480;9.806;2023-08-12T06:24:48;14.88;;;9.65;;
19347;SDS011;9810;52.480;9.806;2023-08-12T06:27:15;16.95;;;11.10;;
19347;SDS011;9810;52.480;9.806;2023-08-12T06:29:44;20.73;;;13.13;;
19347;SDS011;9810;52.480;9.806;2023-08-12T06:32:12;19.67;;;13.02;;
19347;SDS011;9810;52.480;9.806;2023-08-12T06:34:39;17.85;;;12.23;;
19347;SDS011;9810;52.480;9.806;2023-08-12T06:37:06;18.35;;;12.15;;
19347;SDS011;9810;52.480;9.806;2023-08-12T06:39:35;17.43;;;12.50;;
19347;SDS011;9810;52.480;9.806;2023-08-12T06:50:11;20.23;;;12.60;;
19347;SDS011;9810;52.480;9.806;2023-08-12T09:07:39;14.50;;;8.65;;
19347;SDS011;9810;52.480;9.806;2023-08-12T09:10:10;12.52;;;7.20;;
19347;SDS011;9810;52.480;9.806;2023-08-12T09:12:39;9.60;;;4.13;;
19347;SDS011;9810;52.480;9.806;2023-08-12T09:15:07;10.88;;;6.22;;
19347;SDS011;9810;52.480;9.806;2023-08-12T09:17:34;14.60;;;8.75;;
19347;SDS011;9810;52.480;9.806;2023-08-12T09:20:01;14.73;;;7.03;;
19347;SDS011;9810;52.480;9.806;2023-08-12T09:22:33;16.05;;;7.93;;
19347;SDS011;9810;52.480;9.806;2023-08-12T09:25:03;13.40;;;8.52;;
19347;SDS011;9810;52.480;9.806;2023-08-12T09:27:30;15.45;;;8.13;;
19347;SDS011;9810;52.480;9.806;2023-08-12T09:29:58;14.98;;;8.43;;
19347;SDS011;9810;52.480;9.806;2023-08-12T09:32:25;19.08;;;8.05;;
19347;SDS011;9810;52.480;9.806;2023-08-12T09:34:54;12.10;;;7.90;;
19347;SDS011;9810;52.480;9.806;2023-08-12T09:37:23;13.95;;;7.97;;
19347;SDS011;9810;52.480;9.806;2023-08-12T09:39:51;11.88;;;7.55;;
19347;SDS011;9810;52.480;9.806;2023-08-12T09:42:20;11.25;;;7.95;;
19347;SDS011;9810;52.480;9.806;2023-08-12T09:44:49;12.88;;;6.60;;
19347;SDS011;9810;52.480;9.806;2023-08-12T09:47:16;13.50;;;7.03;;
19347;SDS011;9810;52.480;9.806;2023-08-12T09:49:44;11.13;;;5.90;;
19347;SDS011;9810;52.480;9.806;2023-08-12T09:52:14;14.30;;;6.10;;
19347;SDS011;9810;52.480;9.806;2023-08-12T09:54:41;14.38;;;7.75;;
19347;SDS011;9810;52.480;9.806;2023-08-12T09:57:09;11.45;;;7.38;;
19347;SDS011;9810;52.480;9.806;2023-08-12T09:59:40;12.02;;;6.10;;
19347;SDS011;9810;52.480;9.806;2023-08-12T10:02:09;12.23;;;7.38;;
19347;SDS011;9810;52.480;9.806;2023-08-12T10:04:44;14.25;;;7.88;;
19347;SDS011;9810;52.480;9.806;2023-08-12T10:07:11;11.07;;;7.55;;
19347;SDS011;9810;52.480;9.806;2023-08-12T10:09:39;9.15;;;6.32;;
19347;SDS011;9810;52.480;9.806;2023-08-12T10:12:07;11.52;;;6.97;;
19347;SDS011;9810;52.480;9.806;2023-08-12T10:14:35;8.85;;;7.07;;
19347;SDS011;9810;52.480;9.806;2023-08-12T10:17:39;12.10;;;6.70;;
19347;SDS011;9810;52.480;9.806;2023-08-12T10:20:24;13.43;;;5.40;;
19347;SDS011;9810;52.480;9.806;2023-08-12T10:22:53;8.38;;;5.40;;
19347;SDS011;9810;52.480;9.806;2023-08-12T10:25:21;10.30;;;5.75;;
19347;SDS011;9810;52.480;9.806;2023-08-12T10:27:51;6.88;;;5.00;;
19347;SDS011;9810;52.480;9.806;2023-08-12T10:30:20;8.50;;;4.85;;
19347;SDS011;9810;52.480;9.806;2023-08-12T10:32:49;9.70;;;5.20;;
19347;SDS011;9810;52.480;9.806;2023-08-12T10:35:16;7.80;;;4.88;;
19347;SDS011;9810;52.480;9.806;2023-08-12T10:37:47;13.35;;;5.78;;
19347;SDS011;9810;52.480;9.806;2023-08-12T10:40:19;9.50;;;5.45;;
19347;SDS011;9810;52.480;9.806;2023-08-12T10:42:48;6.55;;;5.45;;
19347;SDS011;9810;52.480;9.806;2023-08-12T10:45:16;7.47;;;5.03;;
19347;SDS011;9810;52.480;9.806;2023-08-12T10:47:51;6.38;;;5.30;;
19347;SDS011;9810;52.480;9.806;2023-08-12T10:50:35;10.75;;;5.05;;
19347;SDS011;9810;52.480;9.806;2023-08-12T10:53:20;9.45;;;5.28;;
19347;SDS011;9810;52.480;9.806;2023-08-12T10:55:48;6.53;;;5.30;;
19347;SDS011;9810;52.480;9.806;2023-08-12T10:58:23;8.05;;;4.97;;
19347;SDS011;9810;52.480;9.806;2023-08-12T11:00:53;7.38;;;5.43;;
19347;SDS011;9810;52.480;9.806;2023-08-12T11:03:22;10.60;;;5.32;;
19347;SDS011;9810;52.480;9.806;2023-08-12T11:05:49;6.35;;;4.90;;
19347;SDS011;9810;52.480;9.806;2023-08-12T11:08:23;15.10;;;5.63;;
19347;SDS011;9810;52.480;9.806;2023-08-12T11:10:52;7.60;;;5.45;;
19347;SDS011;9810;52.480;9.806;2023-08-12T11:13:22;6.40;;;4.38;;
19347;SDS011;9810;52.480;9.806;2023-08-12T11:15:49;11.55;;;9.50;;
19347;SDS011;9810;52.480;9.806;2023-08-12T11:18:17;14.95;;;13.50;;
19347;SDS011;9810;52.480;9.806;2023-08-12T11:20:47;11.07;;;9.05;;
19347;SDS011;9810;52.480;9.806;2023-08-12T11:23:15;8.90;;;6.22;;
19347;SDS011;9810;52.480;9.806;2023-08-12T11:25:45;6.63;;;5.65;;
19347;SDS011;9810;52.480;9.806;2023-08-12T11:28:15;5.45;;;4.65;;
19347;SDS011;9810;52.480;9.806;2023-08-12T11:30:45;6.05;;;5.45;;
19347;SDS011;9810;52.480;9.806;2023-08-12T11:33:12;10.52;;;4.00;;
19347;SDS011;9810;52.480;9.806;2023-08-12T11:35:43;6.70;;;4.22;;
19347;SDS011;9810;52.480;9.806;2023-08-12T11:38:11;9.57;;;4.05;;
19347;SDS011;9810;52.480;9.806;2023-08-12T11:40:39;7.03;;;4.60;;
19347;SDS011;9810;52.480;9.806;2023-08-12T11:43:06;5.20;;;4.03;;
19347;SDS011;9810;52.480;9.806;2023-08-12T11:45:33;9.65;;;3.75;;
19347;SDS011;9810;52.480;9.806;2023-08-12T11:48:02;4.80;;;3.30;;
19347;SDS011;9810;52.480;9.806;2023-08-12T11:50:30;3.55;;;2.97;;
19347;SDS011;9810;52.480;9.806;2023-08-12T11:52:57;5.07;;;3.83;;
19347;SDS011;9810;52.480;9.806;2023-08-12T11:55:26;3.70;;;3.22;;
19347;SDS011;9810;52.480;9.806;2023-08-12T11:57:53;4.35;;;3.67;;
19347;SDS011;9810;52.480;9.806;2023-08-12T12:00:24;4.30;;;3.67;;
19347;SDS011;9810;52.480;9.806;2023-08-12T12:02:56;6.53;;;4.20;;
19347;SDS011;9810;52.480;9.806;2023-08-12T12:05:25;4.60;;;3.50;;
19347;SDS011;9810;52.480;9.806;2023-08-12T12:07:56;7.50;;;3.83;;
19347;SDS011;9810;52.480;9.806;2023-08-12T12:10:28;4.53;;;3.78;;
19347;SDS011;9810;52.480;9.806;2023-08-12T12:12:59;4.28;;;3.60;;
19347;SDS011;9810;52.480;9.806;2023-08-12T12:15:26;5.68;;;3.42;;
19347;SDS011;9810;52.480;9.806;2023-08-12T12:17:58;8.27;;;3.90;;
19347;SDS011;9810;52.480;9.806;2023-08-12T12:20:25;5.70;;;3.85;;
19347;SDS011;9810;52.480;9.806;2023-08-12T12:22:54;4.03;;;3.35;;
19347;SDS011;9810;52.480;9.806;2023-08-12T12:25:33;3.65;;;3.35;;
19347;SDS011;9810;52.480;9.806;2023-08-12T12:28:01;5.45;;;3.72;;
19347;SDS011;9810;52.480;9.806;2023-08-12T12:30:30;3.42;;;3.00;;
19347;SDS011;9810;52.480;9.806;2023-08-12T12:33:00;3.53;;;3.20;;
19347;SDS011;9810;52.480;9.806;2023-08-12T12:35:30;3.72;;;3.35;;
19347;SDS011;9810;52.480;9.806;2023-08-12T12:38:00;3.15;;;2.40;;
19347;SDS011;9810;52.480;9.806;2023-08-12T12:40:30;4.88;;;3.28;;
19347;SDS011;9810;52.480;9.806;2023-08-12T12:42:59;2.63;;;2.40;;
19347;SDS011;9810;52.480;9.806;2023-08-12T12:45:27;2.67;;;2.47;;
19347;SDS011;9810;52.480;9.806;2023-08-12T12:48:08;3.47;;;2.22;;
19347;SDS011;9810;52.480;9.806;2023-08-12T12:50:48;2.47;;;2.28;;
19347;SDS011;9810;52.480;9.806;2023-08-12T12:53:16;5.22;;;2.10;;
19347;SDS011;9810;52.480;9.806;2023-08-12T12:56:35;4.05;;;2.88;;
19347;SDS011;9810;52.480;9.806;2023-08-12T12:59:04;7.35;;;2.63;;
19347;SDS011;9810;52.480;9.806;2023-08-12T13:01:31;3.65;;;2.72;;
19347;SDS011;9810;52.480;9.806;2023-08-12T13:03:59;3.97;;;2.42;;
19347;SDS011;9810;52.480;9.806;2023-08-12T13:06:26;5.20;;;2.70;;
19347;SDS011;9810;52.480;9.806;2023-08-12T13:08:53;3.00;;;2.40;;
19347;SDS011;9810;52.480;9.806;2023-08-12T13:11:21;5.30;;;2.20;;
19347;SDS011;9810;52.480;9.806;2023-08-12T13:13:49;4.18;;;1.90;;
19347;SDS011;9810;52.480;9.806;2023-08-12T13:16:17;2.42;;;2.13;;
19347;SDS011;9810;52.480;9.806;2023-08-12T13:18:44;2.33;;;2.03;;
19347;SDS011;9810;52.480;9.806;2023-08-12T13:21:14;2.53;;;1.85;;
19347;SDS011;9810;52.480;9.806;2023-08-12T13:23:45;3.92;;;2.20;;
19347;SDS011;9810;52.480;9.806;2023-08-12T13:26:12;3.58;;;2.17;;
19347;SDS011;9810;52.480;9.806;2023-08-12T13:28:39;4.38;;;2.28;;
19347;SDS011;9810;52.480;9.806;2023-08-12T13:31:11;4.20;;;2.00;;
19347;SDS011;9810;52.480;9.806;2023-08-12T13:33:42;1.45;;;1.35;;
19347;SDS011;9810;52.480;9.806;2023-08-12T13:36:11;3.22;;;1.70;;
19347;SDS011;9810;52.480;9.806;2023-08-12T13:38:38;2.15;;;1.77;;
19347;SDS011;9810;52.480;9.806;2023-08-12T13:41:15;2.33;;;1.60;;
19347;SDS011;9810;52.480;9.806;2023-08-12T13:43:42;2.38;;;1.40;;
19347;SDS011;9810;52.480;9.806;2023-08-12T13:46:30;1.23;;;1.13;;
19347;SDS011;9810;52.480;9.806;2023-08-12T13:49:11;1.10;;;0.98;;
19347;SDS011;9810;52.480;9.806;2023-08-12T13:54:26;1.55;;;1.33;;
19347;SDS011;9810;52.480;9.806;2023-08-12T14:00:35;1.10;;;1.00;;
19347;SDS011;9810;52.480;9.806;2023-08-12T14:03:19;1.00;;;1.00;;
19347;SDS011;9810;52.480;9.806;2023-08-12T14:08:42;2.35;;;1.05;;
19347;SDS011;9810;52.480;9.806;2023-08-12T14:11:11;2.30;;;1.05;;
19347;SDS011;9810;52.480;9.806;2023-08-12T14:13:49;3.17;;;1.17;;
19347;SDS011;9810;52.480;9.806;2023-08-12T14:16:18;1.38;;;1.10;;
19347;SDS011;9810;52.480;9.806;2023-08-12T14:18:50;1.80;;;0.98;;
19347;SDS011;9810;52.480;9.806;2023-08-12T14:21:45;5.95;;;0.90;;
19347;SDS011;9810;52.480;9.806;2023-08-12T14:27:51;2.00;;;0.70;;
19347;SDS011;9810;52.480;9.806;2023-08-12T14:30:22;3.97;;;0.77;;
19347;SDS011;9810;52.480;9.806;2023-08-12T14:32:52;1.10;;;1.00;;
19347;SDS011;9810;52.480;9.806;2023-08-12T14:35:33;1.95;;;0.85;;
19347;SDS011;9810;52.480;9.806;2023-08-12T14:38:18;1.58;;;0.90;;
19347;SDS011;9810;52.480;9.806;2023-08-12T14:40:49;1.15;;;0.80;;
19347;SDS011;9810;52.480;9.806;2023-08-12T14:46:33;0.75;;;0.75;;
19347;SDS011;9810;52.480;9.806;2023-08-12T14:49:08;0.70;;;0.70;;
19347;SDS011;9810;52.480;9.806;2023-08-12T14:51:42;0.90;;;0.90;;
19347;SDS011;9810;52.480;9.806;2023-08-12T14:54:18;0.93;;;0.85;;
19347;SDS011;9810;52.480;9.806;2023-08-12T14:56:47;1.02;;;0.88;;
19347;SDS011;9810;52.480;9.806;2023-08-12T14:59:14;1.10;;;1.10;;
19347;SDS011;9810;52.480;9.806;2023-08-12T15:01:41;0.85;;;0.85;;
19347;SDS011;9810;52.480;9.806;2023-08-12T15:04:16;1.38;;;1.13;;
19347;SDS011;9810;52.480;9.806;2023-08-12T15:07:03;1.40;;;1.30;;
19347;SDS011;9810;52.480;9.806;2023-08-12T15:09:30;1.88;;;1.65;;
19347;SDS011;9810;52.480;9.806;2023-08-12T15:11:57;2.03;;;1.77;;
19347;SDS011;9810;52.480;9.806;2023-08-12T15:14:30;2.03;;;1.80;;
19347;SDS011;9810;52.480;9.806;2023-08-12T15:16:57;2.75;;;1.70;;
19347;SDS011;9810;52.480;9.806;2023-08-12T15:19:24;4.13;;;1.88;;
19347;SDS011;9810;52.480;9.806;2023-08-12T15:21:53;1.80;;;1.67;;
19347;SDS011;9810;52.480;9.806;2023-08-12T15:24:22;1.52;;;1.42;;
19347;SDS011;9810;52.480;9.806;2023-08-12T15:26:49;2.78;;;1.90;;
19347;SDS011;9810;52.480;9.806;2023-08-12T15:29:16;2.42;;;1.70;;
19347;SDS011;9810;52.480;9.806;2023-08-12T15:31:43;2.08;;;1.75;;
19347;SDS011;9810;52.480;9.806;2023-08-12T15:34:10;1.75;;;1.60;;
19347;SDS011;9810;52.480;9.806;2023-08-12T15:36:37;1.83;;;1.58;;
19347;SDS011;9810;52.480;9.806;2023-08-12T15:39:05;1.67;;;1.58;;
19347;SDS011;9810;52.480;9.806;2023-08-12T15:41:36;2.42;;;2.22;;
19347;SDS011;9810;52.480;9.806;2023-08-12T15:44:09;2.03;;;1.83;;
19347;SDS011;9810;52.480;9.806;2023-08-12T15:46:36;1.88;;;1.65;;
19347;SDS011;9810;52.480;9.806;2023-08-12T15:49:04;2.08;;;1.88;;
19347;SDS011;9810;52.480;9.806;2023-08-12T15:51:33;2.15;;;2.03;;
19347;SDS011;9810;52.480;9.806;2023-08-12T15:54:08;2.35;;;2.15;;
19347;SDS011;9810;52.480;9.806;2023-08-12T16:03:49;3.30;;;1.98;;
19347;SDS011;9810;52.480;9.806;2023-08-12T16:06:44;1.50;;;1.40;;
19347;SDS011;9810;52.480;9.806;2023-08-12T16:09:35;1.63;;;1.52;;
19347;SDS011;9810;52.480;9.806;2023-08-12T16:12:02;1.83;;;1.52;;
19347;SDS011;9810;52.480;9.806;2023-08-12T16:14:35;2.50;;;1.70;;
19347;SDS011;9810;52.480;9.806;2023-08-12T16:20:13;1.58;;;1.27;;
19347;SDS011;9810;52.480;9.806;2023-08-12T16:22:40;2.17;;;1.98;;
19347;SDS011;9810;52.480;9.806;2023-08-12T16:25:08;8.85;;;2.28;;
19347;SDS011;9810;52.480;9.806;2023-08-12T16:27:35;3.22;;;1.60;;
19347;SDS011;9810;52.480;9.806;2023-08-12T16:30:02;3.50;;;2.28;;
19347;SDS011;9810;52.480;9.806;2023-08-12T16:32:30;4.40;;;2.20;;
19347;SDS011;9810;52.480;9.806;2023-08-12T16:34:57;4.35;;;2.40;;
19347;SDS011;9810;52.480;9.806;2023-08-12T16:37:25;4.10;;;1.90;;
19347;SDS011;9810;52.480;9.806;2023-08-12T16:39:52;2.85;;;2.35;;
19347;SDS011;9810;52.480;9.806;2023-08-12T16:42:19;2.40;;;2.20;;
19347;SDS011;9810;52.480;9.806;2023-08-12T16:44:46;3.10;;;2.22;;
19347;SDS011;9810;52.480;9.806;2023-08-12T16:47:13;3.65;;;2.15;;
19347;SDS011;9810;52.480;9.806;2023-08-12T16:49:40;2.45;;;2.25;;
19347;SDS011;9810;52.480;9.806;2023-08-12T16:52:07;2.33;;;2.15;;
19347;SDS011;9810;52.480;9.806;2023-08-12T16:54:36;2.35;;;1.98;;
19347;SDS011;9810;52.480;9.806;2023-08-12T16:57:03;3.58;;;2.08;;
19347;SDS011;9810;52.480;9.806;2023-08-12T16:59:30;2.80;;;2.60;;
19347;SDS011;9810;52.480;9.806;2023-08-12T17:01:57;3.40;;;2.28;;
19347;SDS011;9810;52.480;9.806;2023-08-12T17:04:24;3.47;;;3.17;;
19347;SDS011;9810;52.480;9.806;2023-08-12T17:06:51;5.28;;;2.70;;
19347;SDS011;9810;52.480;9.806;2023-08-12T17:09:18;2.63;;;2.40;;
19347;SDS011;9810;52.480;9.806;2023-08-12T17:11:47;4.65;;;2.10;;
19347;SDS011;9810;52.480;9.806;2023-08-12T17:14:14;2.60;;;2.40;;
19347;SDS011;9810;52.480;9.806;2023-08-12T17:16:41;2.33;;;1.73;;
19347;SDS011;9810;52.480;9.806;2023-08-12T17:19:08;3.88;;;2.30;;
19347;SDS011;9810;52.480;9.806;2023-08-12T17:21:35;2.95;;;1.77;;
19347;SDS011;9810;52.480;9.806;2023-08-12T17:24:02;1.65;;;1.55;;
19347;SDS011;9810;52.480;9.806;2023-08-12T17:26:29;1.95;;;1.83;;
19347;SDS011;9810;52.480;9.806;2023-08-12T17:28:58;3.90;;;1.98;;
19347;SDS011;9810;52.480;9.806;2023-08-12T17:31:25;1.77;;;1.67;;
19347;SDS011;9810;52.480;9.806;2023-08-12T17:33:52;2.22;;;2.00;;
19347;SDS011;9810;52.480;9.806;2023-08-12T17:36:19;2.25;;;2.05;;
19347;SDS011;9810;52.480;9.806;2023-08-12T17:38:46;2.28;;;2.13;;
19347;SDS011;9810;52.480;9.806;2023-08-12T17:41:13;2.78;;;2.55;;
19347;SDS011;9810;52.480;9.806;2023-08-12T17:43:40;2.47;;;2.28;;
19347;SDS011;9810;52.480;9.806;2023-08-12T17:46:10;2.95;;;2.40;;
19347;SDS011;9810;52.480;9.806;2023-08-12T17:48:38;2.30;;;2.10;;
19347;SDS011;9810;52.480;9.806;2023-08-12T17:51:05;2.47;;;2.20;;
19347;SDS011;9810;52.480;9.806;2023-08-12T17:53:37;1.90;;;1.70;;
19347;SDS011;9810;52.480;9.806;2023-08-12T17:56:05;3.00;;;2.10;;
19347;SDS011;9810;52.480;9.806;2023-08-12T17:58:32;3.60;;;2.13;;
19347;SDS011;9810;52.480;9.806;2023-08-12T18:00:59;3.05;;;1.85;;
19347;SDS011;9810;52.480;9.806;2023-08-12T18:03:27;2.47;;;2.28;;
19347;SDS011;9810;52.480;9.806;2023-08-12T18:05:54;3.03;;;2.40;;
19347;SDS011;9810;52.480;9.806;2023-08-12T18:08:21;3.47;;;2.33;;